sensor_id;sensor_type;location;lat;lon;timestamp;temperature;humidity
43651;DHT22;29247;50.944;5.382;2023-03-14T00:01:14;13.20;81.20
43651;DHT22;29247;50.944;5.382;2023-03-14T00:03:41;13.20;81.20
43651;DHT22;29247;50.944;5.382;2023-03-14T00:06:08;13.20;81.30
43651;DHT22;29247;50.944;5.382;2023-03-14T00:08:34;13.20;81.40
43651;DHT22;29247;50.944;5.382;2023-03-14T00:11:05;13.20;81.50
43651;DHT22;29247;50.944;5.382;2023-03-14T00:13:34;13.20;82.40
43651;DHT22;29247;50.944;5.382;2023-03-14T00:16:09;13.20;81.70
43651;DHT22;29247;50.944;5.382;2023-03-14T00:18:39;13.10;81.70
43651;DHT22;29247;50.944;5.382;2023-03-14T00:21:08;13.10;81.70
43651;DHT22;29247;50.944;5.382;2023-03-14T00:23:35;13.10;81.80
43651;DHT22;29247;50.944;5.382;2023-03-14T00:26:08;13.10;81.80
43651;DHT22;29247;50.944;5.382;2023-03-14T00:28:34;13.10;81.90
43651;DHT22;29247;50.944;5.382;2023-03-14T00:31:03;13.10;81.90
43651;DHT22;29247;50.944;5.382;2023-03-14T00:33:29;13.10;81.90
43651;DHT22;29247;50.944;5.382;2023-03-14T00:35:59;13.10;81.90
43651;DHT22;29247;50.944;5.382;2023-03-14T00:38:26;13.00;81.80
43651;DHT22;29247;50.944;5.382;2023-03-14T00:40:52;13.10;81.90
43651;DHT22;29247;50.944;5.382;2023-03-14T00:43:21;13.00;81.80
43651;DHT22;29247;50.944;5.382;2023-03-14T00:45:51;13.00;81.80
43651;DHT22;29247;50.944;5.382;2023-03-14T00:48:18;13.00;81.80
43651;DHT22;29247;50.944;5.382;2023-03-14T00:50:49;13.00;81.80
43651;DHT22;29247;50.944;5.382;2023-03-14T00:53:15;13.00;81.80
43651;DHT22;29247;50.944;5.382;2023-03-14T00:55:44;13.00;81.90
43651;DHT22;29247;50.944;5.382;2023-03-14T00:58:12;13.00;81.90
43651;DHT22;29247;50.944;5.382;2023-03-14T01:00:39;13.00;81.90
43651;DHT22;29247;50.944;5.382;2023-03-14T01:03:05;13.00;81.90
43651;DHT22;29247;50.944;5.382;2023-03-14T01:05:34;13.00;82.00
43651;DHT22;29247;50.944;5.382;2023-03-14T01:08:03;12.90;82.10
43651;DHT22;29247;50.944;5.382;2023-03-14T01:10:31;13.00;82.10
43651;DHT22;29247;50.944;5.382;2023-03-14T01:12:57;12.90;82.00
43651;DHT22;29247;50.944;5.382;2023-03-14T01:15:25;12.90;82.10
43651;DHT22;29247;50.944;5.382;2023-03-14T01:17:53;12.90;82.00
43651;DHT22;29247;50.944;5.382;2023-03-14T01:20:21;12.90;81.90
43651;DHT22;29247;50.944;5.382;2023-03-14T01:22:47;12.90;81.80
43651;DHT22;29247;50.944;5.382;2023-03-14T01:25:15;12.90;81.80
43651;DHT22;29247;50.944;5.382;2023-03-14T01:27:42;12.90;81.70
43651;DHT22;29247;50.944;5.382;2023-03-14T01:30:11;12.90;81.70
43651;DHT22;29247;50.944;5.382;2023-03-14T01:32:38;12.90;81.60
43651;DHT22;29247;50.944;5.382;2023-03-14T01:35:05;12.80;81.50
43651;DHT22;29247;50.944;5.382;2023-03-14T01:37:30;12.80;81.50
43651;DHT22;29247;50.944;5.382;2023-03-14T01:39:56;12.80;81.50
43651;DHT22;29247;50.944;5.382;2023-03-14T01:42:22;12.80;81.40
43651;DHT22;29247;50.944;5.382;2023-03-14T01:44:57;12.80;81.40
43651;DHT22;29247;50.944;5.382;2023-03-14T01:47:26;12.80;81.50
43651;DHT22;29247;50.944;5.382;2023-03-14T01:50:00;12.80;81.50
43651;DHT22;29247;50.944;5.382;2023-03-14T01:52:36;12.80;81.50
43651;DHT22;29247;50.944;5.382;2023-03-14T01:55:12;12.80;81.40
43651;DHT22;29247;50.944;5.382;2023-03-14T01:57:47;12.80;81.30
43651;DHT22;29247;50.944;5.382;2023-03-14T02:00:19;12.80;81.30
43651;DHT22;29247;50.944;5.382;2023-03-14T02:02:49;12.80;81.30
43651;DHT22;29247;50.944;5.382;2023-03-14T02:05:24;12.80;81.20
43651;DHT22;29247;50.944;5.382;2023-03-14T02:07:55;12.80;81.90
43651;DHT22;29247;50.944;5.382;2023-03-14T02:10:25;12.80;81.20
43651;DHT22;29247;50.944;5.382;2023-03-14T02:12:52;12.80;81.50
43651;DHT22;29247;50.944;5.382;2023-03-14T02:15:19;12.80;81.00
43651;DHT22;29247;50.944;5.382;2023-03-14T02:17:45;12.80;81.00
43651;DHT22;29247;50.944;5.382;2023-03-14T02:23:18;12.80;81.20
43651;DHT22;29247;50.944;5.382;2023-03-14T02:25:56;12.80;80.90
43651;DHT22;29247;50.944;5.382;2023-03-14T02:28:23;12.80;81.00
43651;DHT22;29247;50.944;5.382;2023-03-14T02:30:51;12.80;80.90
43651;DHT22;29247;50.944;5.382;2023-03-14T02:33:20;12.70;81.00
43651;DHT22;29247;50.944;5.382;2023-03-14T02:35:54;12.80;81.10
43651;DHT22;29247;50.944;5.382;2023-03-14T02:40:53;12.80;81.50
43651;DHT22;29247;50.944;5.382;2023-03-14T02:43:21;12.70;81.70
43651;DHT22;29247;50.944;5.382;2023-03-14T02:45:50;12.70;81.90
43651;DHT22;29247;50.944;5.382;2023-03-14T02:50:46;12.70;82.30
43651;DHT22;29247;50.944;5.382;2023-03-14T02:53:16;12.70;82.50
43651;DHT22;29247;50.944;5.382;2023-03-14T02:55:48;12.70;82.60
43651;DHT22;29247;50.944;5.382;2023-03-14T02:58:14;12.60;82.80
43651;DHT22;29247;50.944;5.382;2023-03-14T03:00:40;12.60;83.10
43651;DHT22;29247;50.944;5.382;2023-03-14T03:03:05;12.60;83.20
43651;DHT22;29247;50.944;5.382;2023-03-14T03:05:32;12.50;83.40
43651;DHT22;29247;50.944;5.382;2023-03-14T03:07:57;12.50;83.70
43651;DHT22;29247;50.944;5.382;2023-03-14T03:10:26;12.50;83.90
43651;DHT22;29247;50.944;5.382;2023-03-14T03:12:53;12.50;84.10
43651;DHT22;29247;50.944;5.382;2023-03-14T03:15:19;12.50;84.30
43651;DHT22;29247;50.944;5.382;2023-03-14T03:17:45;12.50;84.50
43651;DHT22;29247;50.944;5.382;2023-03-14T03:20:11;12.40;84.60
43651;DHT22;29247;50.944;5.382;2023-03-14T03:22:38;12.40;84.80
43651;DHT22;29247;50.944;5.382;2023-03-14T03:25:07;12.40;84.90
43651;DHT22;29247;50.944;5.382;2023-03-14T03:27:35;12.40;85.10
43651;DHT22;29247;50.944;5.382;2023-03-14T03:30:02;12.40;85.20
43651;DHT22;29247;50.944;5.382;2023-03-14T03:32:28;12.40;85.40
43651;DHT22;29247;50.944;5.382;2023-03-14T03:34:53;12.30;85.60
43651;DHT22;29247;50.944;5.382;2023-03-14T03:37:19;12.30;85.80
43651;DHT22;29247;50.944;5.382;2023-03-14T03:39:45;12.30;86.00
43651;DHT22;29247;50.944;5.382;2023-03-14T03:42:10;12.30;86.10
43651;DHT22;29247;50.944;5.382;2023-03-14T03:44:38;12.30;86.20
43651;DHT22;29247;50.944;5.382;2023-03-14T03:47:09;12.30;86.30
43651;DHT22;29247;50.944;5.382;2023-03-14T03:49:37;12.30;86.30
43651;DHT22;29247;50.944;5.382;2023-03-14T03:52:02;12.30;86.40
43651;DHT22;29247;50.944;5.382;2023-03-14T03:54:28;12.30;86.60
43651;DHT22;29247;50.944;5.382;2023-03-14T03:56:58;12.30;86.80
43651;DHT22;29247;50.944;5.382;2023-03-14T03:59:24;12.30;86.80
43651;DHT22;29247;50.944;5.382;2023-03-14T04:01:54;12.30;87.00
43651;DHT22;29247;50.944;5.382;2023-03-14T04:04:20;12.30;87.10
43651;DHT22;29247;50.944;5.382;2023-03-14T04:06:46;12.30;87.20
43651;DHT22;29247;50.944;5.382;2023-03-14T04:09:14;12.30;87.30
43651;DHT22;29247;50.944;5.382;2023-03-14T04:11:41;12.30;87.40
43651;DHT22;29247;50.944;5.382;2023-03-14T04:14:07;12.30;87.40
43651;DHT22;29247;50.944;5.382;2023-03-14T04:16:33;12.30;87.50
43651;DHT22;29247;50.944;5.382;2023-03-14T04:19:00;12.30;87.50
43651;DHT22;29247;50.944;5.382;2023-03-14T04:21:29;12.30;87.60
43651;DHT22;29247;50.944;5.382;2023-03-14T04:23:54;12.30;87.70
43651;DHT22;29247;50.944;5.382;2023-03-14T04:26:21;12.30;87.80
43651;DHT22;29247;50.944;5.382;2023-03-14T04:28:46;12.30;87.90
43651;DHT22;29247;50.944;5.382;2023-03-14T04:31:19;12.30;88.00
43651;DHT22;29247;50.944;5.382;2023-03-14T04:33:47;12.30;88.10
43651;DHT22;29247;50.944;5.382;2023-03-14T04:36:15;12.30;88.10
43651;DHT22;29247;50.944;5.382;2023-03-14T04:38:41;12.30;88.10
43651;DHT22;29247;50.944;5.382;2023-03-14T04:41:09;12.30;88.20
43651;DHT22;29247;50.944;5.382;2023-03-14T04:43:37;12.20;88.20
43651;DHT22;29247;50.944;5.382;2023-03-14T04:46:05;12.20;88.30
43651;DHT22;29247;50.944;5.382;2023-03-14T04:48:31;12.20;88.40
43651;DHT22;29247;50.944;5.382;2023-03-14T04:51:01;12.20;88.40
43651;DHT22;29247;50.944;5.382;2023-03-14T04:53:27;12.20;88.50
43651;DHT22;29247;50.944;5.382;2023-03-14T04:55:54;12.20;88.50
43651;DHT22;29247;50.944;5.382;2023-03-14T04:58:21;12.20;88.60
43651;DHT22;29247;50.944;5.382;2023-03-14T05:00:50;12.20;88.70
43651;DHT22;29247;50.944;5.382;2023-03-14T05:03:16;12.20;88.80
43651;DHT22;29247;50.944;5.382;2023-03-14T05:05:45;12.20;88.90
43651;DHT22;29247;50.944;5.382;2023-03-14T05:08:13;12.20;88.90
43651;DHT22;29247;50.944;5.382;2023-03-14T05:10:41;12.20;89.00
43651;DHT22;29247;50.944;5.382;2023-03-14T05:13:07;12.20;89.00
43651;DHT22;29247;50.944;5.382;2023-03-14T05:15:33;12.10;89.00
43651;DHT22;29247;50.944;5.382;2023-03-14T05:18:04;12.10;89.10
43651;DHT22;29247;50.944;5.382;2023-03-14T05:20:30;12.10;89.10
43651;DHT22;29247;50.944;5.382;2023-03-14T05:22:56;12.10;89.20
43651;DHT22;29247;50.944;5.382;2023-03-14T05:25:21;12.10;89.30
43651;DHT22;29247;50.944;5.382;2023-03-14T05:27:47;12.10;89.30
43651;DHT22;29247;50.944;5.382;2023-03-14T05:30:16;12.10;89.30
43651;DHT22;29247;50.944;5.382;2023-03-14T05:32:41;12.10;89.40
43651;DHT22;29247;50.944;5.382;2023-03-14T05:35:10;12.10;89.40
43651;DHT22;29247;50.944;5.382;2023-03-14T05:37:35;12.10;89.50
43651;DHT22;29247;50.944;5.382;2023-03-14T05:40:01;12.10;89.50
43651;DHT22;29247;50.944;5.382;2023-03-14T05:42:32;12.10;89.50
43651;DHT22;29247;50.944;5.382;2023-03-14T05:44:58;12.10;89.60
43651;DHT22;29247;50.944;5.382;2023-03-14T05:47:24;12.10;89.60
43651;DHT22;29247;50.944;5.382;2023-03-14T05:49:50;12.10;89.70
43651;DHT22;29247;50.944;5.382;2023-03-14T05:52:18;12.10;89.70
43651;DHT22;29247;50.944;5.382;2023-03-14T05:54:47;12.10;89.80
43651;DHT22;29247;50.944;5.382;2023-03-14T05:57:13;12.10;89.90
43651;DHT22;29247;50.944;5.382;2023-03-14T05:59:39;12.10;90.00
43651;DHT22;29247;50.944;5.382;2023-03-14T06:02:07;12.10;90.00
43651;DHT22;29247;50.944;5.382;2023-03-14T06:04:35;12.10;90.00
43651;DHT22;29247;50.944;5.382;2023-03-14T06:07:01;12.10;90.00
43651;DHT22;29247;50.944;5.382;2023-03-14T06:09:26;12.10;90.00
43651;DHT22;29247;50.944;5.382;2023-03-14T06:11:54;12.10;90.00
43651;DHT22;29247;50.944;5.382;2023-03-14T06:14:20;12.10;90.00
43651;DHT22;29247;50.944;5.382;2023-03-14T06:16:45;12.10;90.10
43651;DHT22;29247;50.944;5.382;2023-03-14T06:19:13;12.10;90.10
43651;DHT22;29247;50.944;5.382;2023-03-14T06:21:41;12.10;90.10
43651;DHT22;29247;50.944;5.382;2023-03-14T06:24:07;12.10;90.10
43651;DHT22;29247;50.944;5.382;2023-03-14T06:26:32;12.10;90.10
43651;DHT22;29247;50.944;5.382;2023-03-14T06:29:00;12.10;90.10
43651;DHT22;29247;50.944;5.382;2023-03-14T06:31:32;12.10;90.20
43651;DHT22;29247;50.944;5.382;2023-03-14T06:33:58;12.20;90.30
43651;DHT22;29247;50.944;5.382;2023-03-14T06:36:24;12.10;90.20
43651;DHT22;29247;50.944;5.382;2023-03-14T06:38:52;12.10;90.20
43651;DHT22;29247;50.944;5.382;2023-03-14T06:41:18;12.20;90.30
43651;DHT22;29247;50.944;5.382;2023-03-14T06:43:44;12.20;90.30
43651;DHT22;29247;50.944;5.382;2023-03-14T06:46:11;12.20;90.40
43651;DHT22;29247;50.944;5.382;2023-03-14T06:48:42;12.20;90.40
43651;DHT22;29247;50.944;5.382;2023-03-14T06:51:10;12.30;90.50
43651;DHT22;29247;50.944;5.382;2023-03-14T06:53:38;12.30;90.50
43651;DHT22;29247;50.944;5.382;2023-03-14T06:56:07;12.30;90.50
43651;DHT22;29247;50.944;5.382;2023-03-14T06:58:35;12.30;90.50
43651;DHT22;29247;50.944;5.382;2023-03-14T07:01:01;12.30;90.50
43651;DHT22;29247;50.944;5.382;2023-03-14T07:03:27;12.40;90.50
43651;DHT22;29247;50.944;5.382;2023-03-14T07:05:53;12.40;90.50
43651;DHT22;29247;50.944;5.382;2023-03-14T07:08:21;12.40;90.60
43651;DHT22;29247;50.944;5.382;2023-03-14T07:10:46;12.50;90.60
43651;DHT22;29247;50.944;5.382;2023-03-14T07:13:14;12.50;90.60
43651;DHT22;29247;50.944;5.382;2023-03-14T07:15:40;12.50;90.60
43651;DHT22;29247;50.944;5.382;2023-03-14T07:18:06;12.60;90.50
43651;DHT22;29247;50.944;5.382;2023-03-14T07:20:31;12.60;90.50
43651;DHT22;29247;50.944;5.382;2023-03-14T07:22:57;12.60;90.50
43651;DHT22;29247;50.944;5.382;2023-03-14T07:25:25;12.60;90.40
43651;DHT22;29247;50.944;5.382;2023-03-14T07:27:51;12.60;90.40
43651;DHT22;29247;50.944;5.382;2023-03-14T07:30:20;12.70;90.30
43651;DHT22;29247;50.944;5.382;2023-03-14T07:32:46;12.70;90.30
43651;DHT22;29247;50.944;5.382;2023-03-14T07:35:17;12.70;90.30
43651;DHT22;29247;50.944;5.382;2023-03-14T07:37:43;12.70;90.20
43651;DHT22;29247;50.944;5.382;2023-03-14T07:40:09;12.60;90.10
43651;DHT22;29247;50.944;5.382;2023-03-14T07:42:38;12.60;90.20
43651;DHT22;29247;50.944;5.382;2023-03-14T07:45:04;12.60;90.20
43651;DHT22;29247;50.944;5.382;2023-03-14T07:47:32;12.60;90.30
43651;DHT22;29247;50.944;5.382;2023-03-14T07:49:58;12.60;90.30
43651;DHT22;29247;50.944;5.382;2023-03-14T07:52:23;12.60;90.20
43651;DHT22;29247;50.944;5.382;2023-03-14T07:54:49;12.60;90.20
43651;DHT22;29247;50.944;5.382;2023-03-14T07:57:15;12.60;90.20
43651;DHT22;29247;50.944;5.382;2023-03-14T07:59:44;12.60;90.20
43651;DHT22;29247;50.944;5.382;2023-03-14T08:02:12;12.60;90.00
43651;DHT22;29247;50.944;5.382;2023-03-14T08:04:39;12.50;89.00
43651;DHT22;29247;50.944;5.382;2023-03-14T08:07:07;12.40;87.90
43651;DHT22;29247;50.944;5.382;2023-03-14T08:09:33;12.20;87.40
43651;DHT22;29247;50.944;5.382;2023-03-14T08:11:59;12.00;86.90
43651;DHT22;29247;50.944;5.382;2023-03-14T08:14:27;11.90;87.00
43651;DHT22;29247;50.944;5.382;2023-03-14T08:16:54;11.80;87.10
43651;DHT22;29247;50.944;5.382;2023-03-14T08:19:20;11.70;87.40
43651;DHT22;29247;50.944;5.382;2023-03-14T08:21:46;11.70;87.50
43651;DHT22;29247;50.944;5.382;2023-03-14T08:24:14;11.70;87.60
43651;DHT22;29247;50.944;5.382;2023-03-14T08:26:39;11.60;88.10
43651;DHT22;29247;50.944;5.382;2023-03-14T08:29:05;11.60;87.10
43651;DHT22;29247;50.944;5.382;2023-03-14T08:31:31;11.50;86.70
43651;DHT22;29247;50.944;5.382;2023-03-14T08:34:00;11.40;86.70
43651;DHT22;29247;50.944;5.382;2023-03-14T08:36:27;11.30;86.80
43651;DHT22;29247;50.944;5.382;2023-03-14T08:38:53;11.30;87.00
43651;DHT22;29247;50.944;5.382;2023-03-14T08:41:19;11.30;87.20
43651;DHT22;29247;50.944;5.382;2023-03-14T08:43:45;11.30;87.50
43651;DHT22;29247;50.944;5.382;2023-03-14T08:46:13;11.30;87.40
43651;DHT22;29247;50.944;5.382;2023-03-14T08:48:39;11.20;87.20
43651;DHT22;29247;50.944;5.382;2023-03-14T08:51:11;11.20;87.20
43651;DHT22;29247;50.944;5.382;2023-03-14T08:53:38;11.20;87.00
43651;DHT22;29247;50.944;5.382;2023-03-14T08:56:09;11.10;87.30
43651;DHT22;29247;50.944;5.382;2023-03-14T08:58:36;11.20;87.90
43651;DHT22;29247;50.944;5.382;2023-03-14T09:01:04;11.10;87.40
43651;DHT22;29247;50.944;5.382;2023-03-14T09:03:30;11.10;87.50
43651;DHT22;29247;50.944;5.382;2023-03-14T09:06:00;11.10;87.60
43651;DHT22;29247;50.944;5.382;2023-03-14T09:08:26;11.10;87.40
43651;DHT22;29247;50.944;5.382;2023-03-14T09:10:54;11.20;87.70
43651;DHT22;29247;50.944;5.382;2023-03-14T09:13:20;11.20;87.80
43651;DHT22;29247;50.944;5.382;2023-03-14T09:15:51;11.20;87.50
43651;DHT22;29247;50.944;5.382;2023-03-14T09:18:17;11.20;87.20
43651;DHT22;29247;50.944;5.382;2023-03-14T09:20:45;11.20;87.40
43651;DHT22;29247;50.944;5.382;2023-03-14T09:23:10;11.30;87.40
43651;DHT22;29247;50.944;5.382;2023-03-14T09:25:36;11.30;88.10
43651;DHT22;29247;50.944;5.382;2023-03-14T09:28:04;11.20;87.00
43651;DHT22;29247;50.944;5.382;2023-03-14T09:30:30;11.20;86.90
43651;DHT22;29247;50.944;5.382;2023-03-14T09:33:00;11.20;86.40
43651;DHT22;29247;50.944;5.382;2023-03-14T09:35:28;11.20;86.80
43651;DHT22;29247;50.944;5.382;2023-03-14T09:37:56;11.30;87.00
43651;DHT22;29247;50.944;5.382;2023-03-14T09:40:22;11.30;87.00
43651;DHT22;29247;50.944;5.382;2023-03-14T09:42:53;11.40;87.10
43651;DHT22;29247;50.944;5.382;2023-03-14T09:45:28;11.40;86.90
43651;DHT22;29247;50.944;5.382;2023-03-14T09:47:55;11.50;86.90
43651;DHT22;29247;50.944;5.382;2023-03-14T09:50:25;11.50;86.80
43651;DHT22;29247;50.944;5.382;2023-03-14T09:52:58;11.50;85.60
43651;DHT22;29247;50.944;5.382;2023-03-14T09:55:25;11.60;85.00
43651;DHT22;29247;50.944;5.382;2023-03-14T09:57:58;11.60;85.00
43651;DHT22;29247;50.944;5.382;2023-03-14T10:00:30;11.50;84.60
43651;DHT22;29247;50.944;5.382;2023-03-14T10:03:20;11.50;84.60
43651;DHT22;29247;50.944;5.382;2023-03-14T10:05:47;11.40;83.40
43651;DHT22;29247;50.944;5.382;2023-03-14T10:08:13;11.30;83.20
43651;DHT22;29247;50.944;5.382;2023-03-14T10:10:40;11.20;83.50
43651;DHT22;29247;50.944;5.382;2023-03-14T10:16:05;11.10;84.70
43651;DHT22;29247;50.944;5.382;2023-03-14T10:18:38;11.10;85.40
43651;DHT22;29247;50.944;5.382;2023-03-14T10:21:27;11.20;85.60
43651;DHT22;29247;50.944;5.382;2023-03-14T10:23:53;11.20;85.20
43651;DHT22;29247;50.944;5.382;2023-03-14T10:26:24;11.20;85.50
43651;DHT22;29247;50.944;5.382;2023-03-14T10:29:11;11.30;85.70
43651;DHT22;29247;50.944;5.382;2023-03-14T10:32:01;11.40;85.90
43651;DHT22;29247;50.944;5.382;2023-03-14T10:34:35;11.50;85.60
43651;DHT22;29247;50.944;5.382;2023-03-14T10:37:21;11.50;84.80
43651;DHT22;29247;50.944;5.382;2023-03-14T10:39:53;11.50;84.70
43651;DHT22;29247;50.944;5.382;2023-03-14T10:45:36;11.60;84.60
43651;DHT22;29247;50.944;5.382;2023-03-14T10:47:36;11.60;84.00
43651;DHT22;29247;50.944;5.382;2023-03-14T10:50:28;11.60;84.00
43651;DHT22;29247;50.944;5.382;2023-03-14T10:52:55;11.60;84.30
43651;DHT22;29247;50.944;5.382;2023-03-14T10:55:25;11.60;84.20
43651;DHT22;29247;50.944;5.382;2023-03-14T10:57:52;11.60;83.70
43651;DHT22;29247;50.944;5.382;2023-03-14T11:00:22;11.60;83.80
43651;DHT22;29247;50.944;5.382;2023-03-14T11:03:11;11.70;83.80
43651;DHT22;29247;50.944;5.382;2023-03-14T11:05:47;11.70;83.70
43651;DHT22;29247;50.944;5.382;2023-03-14T11:08:23;11.60;83.70
43651;DHT22;29247;50.944;5.382;2023-03-14T11:11:06;11.60;83.90
43651;DHT22;29247;50.944;5.382;2023-03-14T11:27:21;11.70;84.20
43651;DHT22;29247;50.944;5.382;2023-03-14T11:29:55;11.80;84.30
43651;DHT22;29247;50.944;5.382;2023-03-14T11:34:58;12.00;84.00
43651;DHT22;29247;50.944;5.382;2023-03-14T11:37:33;12.00;82.80
43651;DHT22;29247;50.944;5.382;2023-03-14T11:40:28;12.00;82.60
43651;DHT22;29247;50.944;5.382;2023-03-14T11:43:17;11.90;81.80
43651;DHT22;29247;50.944;5.382;2023-03-14T11:45:47;11.80;81.40
43651;DHT22;29247;50.944;5.382;2023-03-14T11:50:59;11.50;81.10
43651;DHT22;29247;50.944;5.382;2023-03-14T11:55:58;11.30;81.90
43651;DHT22;29247;50.944;5.382;2023-03-14T11:58:30;11.30;82.50
43651;DHT22;29247;50.944;5.382;2023-03-14T12:00:57;11.30;82.80
43651;DHT22;29247;50.944;5.382;2023-03-14T12:03:39;11.30;83.30
43651;DHT22;29247;50.944;5.382;2023-03-14T12:06:19;11.40;84.10
43651;DHT22;29247;50.944;5.382;2023-03-14T12:08:58;11.50;83.60
43651;DHT22;29247;50.944;5.382;2023-03-14T12:14:00;11.70;84.60
43651;DHT22;29247;50.944;5.382;2023-03-14T12:16:38;11.90;85.40
43651;DHT22;29247;50.944;5.382;2023-03-14T12:19:37;12.10;84.30
43651;DHT22;29247;50.944;5.382;2023-03-14T12:24:48;12.20;82.10
43651;DHT22;29247;50.944;5.382;2023-03-14T12:30:23;11.90;80.00
43651;DHT22;29247;50.944;5.382;2023-03-14T12:43:52;11.20;80.60
43651;DHT22;29247;50.944;5.382;2023-03-14T12:48:54;11.10;79.90
43651;DHT22;29247;50.944;5.382;2023-03-14T12:51:37;11.00;79.50
43651;DHT22;29247;50.944;5.382;2023-03-14T12:59:54;10.70;80.00
43651;DHT22;29247;50.944;5.382;2023-03-14T13:02:36;10.60;80.10
43651;DHT22;29247;50.944;5.382;2023-03-14T13:05:18;10.60;80.20
43651;DHT22;29247;50.944;5.382;2023-03-14T13:10:29;10.50;81.00
43651;DHT22;29247;50.944;5.382;2023-03-14T13:13:19;10.50;81.50
43651;DHT22;29247;50.944;5.382;2023-03-14T13:15:46;10.50;81.90
43651;DHT22;29247;50.944;5.382;2023-03-14T13:21:12;10.60;82.20
43651;DHT22;29247;50.944;5.382;2023-03-14T13:24:03;10.60;82.10
43651;DHT22;29247;50.944;5.382;2023-03-14T13:26:39;10.50;82.00
43651;DHT22;29247;50.944;5.382;2023-03-14T13:29:24;10.50;82.40
43651;DHT22;29247;50.944;5.382;2023-03-14T13:31:58;10.50;82.30
43651;DHT22;29247;50.944;5.382;2023-03-14T13:34:29;10.50;82.50
43651;DHT22;29247;50.944;5.382;2023-03-14T13:36:55;10.60;83.00
43651;DHT22;29247;50.944;5.382;2023-03-14T13:39:25;10.60;83.00
43651;DHT22;29247;50.944;5.382;2023-03-14T13:41:53;10.70;83.10
43651;DHT22;29247;50.944;5.382;2023-03-14T13:44:29;10.70;82.70
43651;DHT22;29247;50.944;5.382;2023-03-14T13:47:00;10.70;82.50
43651;DHT22;29247;50.944;5.382;2023-03-14T13:49:30;10.70;82.70
43651;DHT22;29247;50.944;5.382;2023-03-14T13:52:00;10.80;82.80
43651;DHT22;29247;50.944;5.382;2023-03-14T13:54:27;10.80;82.80
43651;DHT22;29247;50.944;5.382;2023-03-14T13:57:04;10.80;83.00
43651;DHT22;29247;50.944;5.382;2023-03-14T13:59:36;10.80;83.30
43651;DHT22;29247;50.944;5.382;2023-03-14T14:02:13;10.90;83.40
43651;DHT22;29247;50.944;5.382;2023-03-14T14:04:42;10.90;83.40
43651;DHT22;29247;50.944;5.382;2023-03-14T14:07:15;11.00;83.30
43651;DHT22;29247;50.944;5.382;2023-03-14T14:09:47;11.00;83.20
43651;DHT22;29247;50.944;5.382;2023-03-14T14:12:19;11.00;83.20
43651;DHT22;29247;50.944;5.382;2023-03-14T14:17:19;11.10;83.20
43651;DHT22;29247;50.944;5.382;2023-03-14T14:19:47;11.10;83.10
43651;DHT22;29247;50.944;5.382;2023-03-14T14:22:13;11.10;82.80
43651;DHT22;29247;50.944;5.382;2023-03-14T14:24:42;11.10;82.70
43651;DHT22;29247;50.944;5.382;2023-03-14T14:27:19;11.10;82.20
43651;DHT22;29247;50.944;5.382;2023-03-14T14:30:04;11.10;82.10
43651;DHT22;29247;50.944;5.382;2023-03-14T14:32:40;11.10;81.90
43651;DHT22;29247;50.944;5.382;2023-03-14T14:35:09;11.10;81.60
43651;DHT22;29247;50.944;5.382;2023-03-14T14:37:42;11.00;81.50
43651;DHT22;29247;50.944;5.382;2023-03-14T14:40:32;11.00;81.50
43651;DHT22;29247;50.944;5.382;2023-03-14T14:43:05;11.00;81.40
43651;DHT22;29247;50.944;5.382;2023-03-14T14:45:37;11.00;81.30
43651;DHT22;29247;50.944;5.382;2023-03-14T14:48:06;11.00;81.10
43651;DHT22;29247;50.944;5.382;2023-03-14T14:50:36;11.00;81.20
43651;DHT22;29247;50.944;5.382;2023-03-14T14:53:29;11.00;81.00
43651;DHT22;29247;50.944;5.382;2023-03-14T14:55:58;10.90;80.90
43651;DHT22;29247;50.944;5.382;2023-03-14T14:58:35;10.90;80.50
43651;DHT22;29247;50.944;5.382;2023-03-14T15:01:22;10.90;80.80
43651;DHT22;29247;50.944;5.382;2023-03-14T15:03:51;10.90;81.00
43651;DHT22;29247;50.944;5.382;2023-03-14T15:06:18;10.90;81.10
43651;DHT22;29247;50.944;5.382;2023-03-14T15:08:49;10.80;81.00
43651;DHT22;29247;50.944;5.382;2023-03-14T15:11:26;10.90;81.40
43651;DHT22;29247;50.944;5.382;2023-03-14T15:13:52;10.90;81.40
43651;DHT22;29247;50.944;5.382;2023-03-14T15:16:27;10.90;81.30
43651;DHT22;29247;50.944;5.382;2023-03-14T15:18:55;10.90;81.30
43651;DHT22;29247;50.944;5.382;2023-03-14T15:21:23;10.80;81.30
43651;DHT22;29247;50.944;5.382;2023-03-14T15:23:49;10.80;81.30
43651;DHT22;29247;50.944;5.382;2023-03-14T15:26:26;10.80;81.20
43651;DHT22;29247;50.944;5.382;2023-03-14T15:28:53;10.80;81.30
43651;DHT22;29247;50.944;5.382;2023-03-14T15:31:20;10.70;81.10
43651;DHT22;29247;50.944;5.382;2023-03-14T15:33:52;10.70;80.80
43651;DHT22;29247;50.944;5.382;2023-03-14T15:36:26;10.60;79.90
43651;DHT22;29247;50.944;5.382;2023-03-14T15:38:53;10.40;78.70
43651;DHT22;29247;50.944;5.382;2023-03-14T15:41:22;10.30;75.60
43651;DHT22;29247;50.944;5.382;2023-03-14T15:43:48;10.00;73.70
43651;DHT22;29247;50.944;5.382;2023-03-14T15:46:17;9.80;74.00
43651;DHT22;29247;50.944;5.382;2023-03-14T15:48:46;9.70;73.20
43651;DHT22;29247;50.944;5.382;2023-03-14T15:51:12;9.60;72.70
43651;DHT22;29247;50.944;5.382;2023-03-14T15:53:38;9.50;72.80
43651;DHT22;29247;50.944;5.382;2023-03-14T15:56:12;9.40;73.10
43651;DHT22;29247;50.944;5.382;2023-03-14T15:58:41;9.40;72.70
43651;DHT22;29247;50.944;5.382;2023-03-14T16:01:09;9.30;72.10
43651;DHT22;29247;50.944;5.382;2023-03-14T16:03:37;9.30;71.70
43651;DHT22;29247;50.944;5.382;2023-03-14T16:06:03;9.20;72.10
43651;DHT22;29247;50.944;5.382;2023-03-14T16:08:29;9.20;72.50
43651;DHT22;29247;50.944;5.382;2023-03-14T16:10:58;9.20;73.00
43651;DHT22;29247;50.944;5.382;2023-03-14T16:13:23;9.20;73.50
43651;DHT22;29247;50.944;5.382;2023-03-14T16:16:08;9.30;74.10
43651;DHT22;29247;50.944;5.382;2023-03-14T16:18:36;9.30;74.60
43651;DHT22;29247;50.944;5.382;2023-03-14T16:21:10;9.40;74.70
43651;DHT22;29247;50.944;5.382;2023-03-14T16:23:36;9.40;74.90
43651;DHT22;29247;50.944;5.382;2023-03-14T16:26:04;9.40;75.00
43651;DHT22;29247;50.944;5.382;2023-03-14T16:28:30;9.40;75.40
43651;DHT22;29247;50.944;5.382;2023-03-14T16:31:03;9.40;75.60
43651;DHT22;29247;50.944;5.382;2023-03-14T16:33:30;9.40;75.80
43651;DHT22;29247;50.944;5.382;2023-03-14T16:35:58;9.40;75.80
43651;DHT22;29247;50.944;5.382;2023-03-14T16:38:25;9.40;75.90
43651;DHT22;29247;50.944;5.382;2023-03-14T16:40:59;9.30;75.60
43651;DHT22;29247;50.944;5.382;2023-03-14T16:43:28;9.30;75.50
43651;DHT22;29247;50.944;5.382;2023-03-14T16:45:57;9.20;75.40
43651;DHT22;29247;50.944;5.382;2023-03-14T16:48:28;9.20;75.30
43651;DHT22;29247;50.944;5.382;2023-03-14T16:50:55;9.10;75.30
43651;DHT22;29247;50.944;5.382;2023-03-14T16:53:23;9.10;75.10
43651;DHT22;29247;50.944;5.382;2023-03-14T16:55:52;9.10;74.90
43651;DHT22;29247;50.944;5.382;2023-03-14T16:58:18;9.00;74.80